Time,TemperatureF,DewpointF,PressureIn,WindDirection,WindDirectionDegrees,WindSpeedMPH,WindSpeedGustMPH,Humidity,HourlyPrecipIn,Conditions,Clouds,dailyrainin,SolarRadiationWatts/m^2,SoftwareType,DateUTC
2013-04-28 00:01:00,51.0,36.0,-100.00,NNE,12,5.0,15.0,56,0.00,,,0.00,1.000000,,2013-04-28 06:01:00,
2013-04-28 00:22:00,51.0,36.0,-100.00,NNE,12,5.0,15.0,56,0.00,,,0.00,1.000000,,2013-04-28 06:22:00,
2013-04-28 00:32:00,51.0,36.0,-100.00,NNE,12,5.0,15.0,56,0.00,,,0.00,1.000000,,2013-04-28 06:32:00,
2013-04-28 00:42:00,51.0,36.0,-100.00,NNE,12,5.0,15.0,56,0.00,,,0.00,1.000000,,2013-04-28 06:42:00,
2013-04-28 00:52:00,51.0,36.0,-100.00,NNE,12,5.0,15.0,56,0.00,,,0.00,1.000000,,2013-04-28 06:52:00,
2013-04-28 01:01:00,51.0,35.0,-100.00,ENE,58,4.0,15.0,54,0.00,,,0.00,1.000000,,2013-04-28 07:01:00,
2013-04-28 01:32:00,51.0,35.0,-100.00,ENE,58,4.0,15.0,54,0.00,,,0.00,1.000000,,2013-04-28 07:32:00,
2013-04-28 01:42:00,51.0,35.0,-100.00,ENE,58,4.0,15.0,54,0.00,,,0.00,1.000000,,2013-04-28 07:42:00,
2013-04-28 01:52:00,51.0,35.0,-100.00,ENE,58,4.0,15.0,54,0.00,,,0.00,1.000000,,2013-04-28 07:52:00,
2013-04-28 02:01:00,51.0,34.0,-100.00,NNW,334,4.0,13.0,53,0.00,,,0.00,1.000000,,2013-04-28 08:01:00,
2013-04-28 02:32:00,51.0,34.0,-100.00,NNW,334,4.0,13.0,53,0.00,,,0.00,1.000000,,2013-04-28 08:32:00,
2013-04-28 02:42:00,51.0,34.0,-100.00,NNW,334,4.0,13.0,53,0.00,,,0.00,1.000000,,2013-04-28 08:42:00,
2013-04-28 02:52:00,51.0,34.0,-100.00,NNW,334,4.0,13.0,53,0.00,,,0.00,1.000000,,2013-04-28 08:52:00,
2013-04-28 03:01:00,48.0,37.0,-100.00,West,268,3.0,6.0,65,0.00,,,0.00,1.000000,,2013-04-28 09:01:00,
2013-04-28 03:33:00,48.0,37.0,-100.00,West,268,3.0,6.0,65,0.00,,,0.00,1.000000,,2013-04-28 09:33:00,
2013-04-28 03:42:00,48.0,37.0,-100.00,West,268,3.0,6.0,65,0.00,,,0.00,1.000000,,2013-04-28 09:42:00,
2013-04-28 03:53:00,48.0,37.0,-100.00,West,268,3.0,6.0,65,0.00,,,0.00,1.000000,,2013-04-28 09:53:00,
2013-04-28 04:01:00,46.0,35.0,-100.00,NNW,337,3.0,6.0,66,0.00,,,0.00,1.000000,,2013-04-28 10:01:00,
2013-04-28 04:32:00,46.0,35.0,-100.00,NNW,337,3.0,6.0,66,0.00,,,0.00,1.000000,,2013-04-28 10:32:00,
2013-04-28 04:42:00,46.0,35.0,-100.00,NNW,337,3.0,6.0,66,0.00,,,0.00,1.000000,,2013-04-28 10:42:00,
2013-04-28 04:52:00,46.0,35.0,-100.00,NNW,337,3.0,6.0,66,0.00,,,0.00,1.000000,,2013-04-28 10:52:00,
2013-04-28 05:01:00,49.0,38.0,-100.00,North,5,4.0,6.0,65,0.00,,,0.00,1.000000,,2013-04-28 11:01:00,
2013-04-28 05:32:00,49.0,38.0,-100.00,North,5,4.0,6.0,65,0.00,,,0.00,1.000000,,2013-04-28 11:32:00,
2013-04-28 05:42:00,49.0,38.0,-100.00,North,5,4.0,6.0,65,0.00,,,0.00,1.000000,,2013-04-28 11:42:00,
2013-04-28 05:52:00,49.0,38.0,-100.00,North,5,4.0,6.0,65,0.00,,,0.00,1.000000,,2013-04-28 11:52:00,
2013-04-28 06:01:00,48.0,37.0,-100.00,NW,317,3.0,8.0,66,0.00,,,0.00,1.000000,,2013-04-28 12:01:00,
2013-04-28 06:32:00,48.0,37.0,-100.00,NW,317,3.0,8.0,66,0.00,,,0.00,1.000000,,2013-04-28 12:32:00,
2013-04-28 06:42:00,48.0,37.0,-100.00,NW,317,3.0,8.0,66,0.00,,,0.00,1.000000,,2013-04-28 12:42:00,
2013-04-28 06:52:00,48.0,37.0,-100.00,NW,317,3.0,8.0,66,0.00,,,0.00,1.000000,,2013-04-28 12:52:00,
2013-04-28 07:01:00,46.0,39.0,-100.00,WSW,248,1.0,7.0,75,0.00,,,0.00,4.000000,,2013-04-28 13:01:00,
2013-04-28 07:32:00,46.0,39.0,-100.00,WSW,248,1.0,7.0,75,0.00,,,0.00,4.000000,,2013-04-28 13:32:00,
2013-04-28 07:42:00,46.0,39.0,-100.00,WSW,248,1.0,7.0,75,0.00,,,0.00,4.000000,,2013-04-28 13:42:00,
2013-04-28 07:52:00,46.0,39.0,-100.00,WSW,248,1.0,7.0,75,0.00,,,0.00,4.000000,,2013-04-28 13:52:00,
2013-04-28 08:01:00,47.0,41.0,-100.00,North,354,2.0,4.0,81,0.00,,,0.00,48.000000,,2013-04-28 14:01:00,
2013-04-28 08:32:00,47.0,41.0,-100.00,North,354,2.0,4.0,81,0.00,,,0.00,48.000000,,2013-04-28 14:32:00,
2013-04-28 08:42:00,47.0,41.0,-100.00,North,354,2.0,4.0,81,0.00,,,0.00,48.000000,,2013-04-28 14:42:00,
2013-04-28 08:52:00,47.0,41.0,-100.00,North,354,2.0,4.0,81,0.00,,,0.00,48.000000,,2013-04-28 14:52:00,
2013-04-28 09:01:00,49.0,40.0,-100.00,SSE,151,2.0,5.0,70,0.00,,,0.00,74.000000,,2013-04-28 15:01:00,
2013-04-28 09:22:00,49.0,40.0,-100.00,SSE,151,2.0,5.0,70,0.00,,,0.00,74.000000,,2013-04-28 15:22:00,
2013-04-28 09:33:00,49.0,40.0,-100.00,SSE,151,2.0,5.0,70,0.00,,,0.00,74.000000,,2013-04-28 15:33:00,
2013-04-28 09:42:00,49.0,40.0,-100.00,SSE,151,2.0,5.0,70,0.00,,,0.00,74.000000,,2013-04-28 15:42:00,
2013-04-28 09:53:00,49.0,40.0,-100.00,SSE,151,2.0,5.0,70,0.00,,,0.00,74.000000,,2013-04-28 15:53:00,
2013-04-28 10:01:00,51.0,37.0,-100.00,NNE,19,3.0,8.0,58,0.00,,,0.00,185.000000,,2013-04-28 16:01:00,
2013-04-28 10:23:00,51.0,37.0,-100.00,NNE,19,3.0,8.0,58,0.00,,,0.00,185.000000,,2013-04-28 16:23:00,
2013-04-28 10:33:00,51.0,37.0,-100.00,NNE,19,3.0,8.0,58,0.00,,,0.00,185.000000,,2013-04-28 16:33:00,
2013-04-28 10:43:00,51.0,37.0,-100.00,NNE,19,3.0,8.0,58,0.00,,,0.00,185.000000,,2013-04-28 16:43:00,
2013-04-28 10:52:00,51.0,37.0,-100.00,NNE,19,3.0,8.0,58,0.00,,,0.00,185.000000,,2013-04-28 16:52:00,
2013-04-28 11:01:00,55.0,38.0,-100.00,ENE,64,5.0,10.0,52,0.00,,,0.00,520.000000,,2013-04-28 17:01:00,
2013-04-28 11:32:00,55.0,38.0,-100.00,ENE,64,5.0,10.0,52,0.00,,,0.00,520.000000,,2013-04-28 17:32:00,
2013-04-28 11:43:00,55.0,38.0,-100.00,ENE,64,5.0,10.0,52,0.00,,,0.00,520.000000,,2013-04-28 17:43:00,
2013-04-28 11:52:00,55.0,38.0,-100.00,ENE,64,5.0,10.0,52,0.00,,,0.00,520.000000,,2013-04-28 17:52:00,
2013-04-28 12:01:00,53.0,34.0,-100.00,NNE,30,5.0,15.0,48,0.00,,,0.00,659.000000,,2013-04-28 18:01:00,
2013-04-28 12:32:00,53.0,34.0,-100.00,NNE,30,5.0,15.0,48,0.00,,,0.00,659.000000,,2013-04-28 18:32:00,
2013-04-28 12:42:00,53.0,34.0,-100.00,NNE,30,5.0,15.0,48,0.00,,,0.00,659.000000,,2013-04-28 18:42:00,
2013-04-28 12:52:00,53.0,34.0,-100.00,NNE,30,5.0,15.0,48,0.00,,,0.00,659.000000,,2013-04-28 18:52:00,
2013-04-28 13:01:00,56.0,31.0,-100.00,ENE,71,4.0,11.0,39,0.00,,,0.00,399.000000,,2013-04-28 19:01:00,
2013-04-28 13:22:00,56.0,31.0,-100.00,ENE,71,4.0,11.0,39,0.00,,,0.00,399.000000,,2013-04-28 19:22:00,
2013-04-28 13:32:00,56.0,31.0,-100.00,ENE,71,4.0,11.0,39,0.00,,,0.00,399.000000,,2013-04-28 19:32:00,
2013-04-28 13:42:00,56.0,31.0,-100.00,ENE,71,4.0,11.0,39,0.00,,,0.00,399.000000,,2013-04-28 19:42:00,
2013-04-28 13:52:00,56.0,31.0,-100.00,ENE,71,4.0,11.0,39,0.00,,,0.00,399.000000,,2013-04-28 19:52:00,
2013-04-28 14:01:00,57.0,31.0,-100.00,SW,217,4.0,11.0,37,0.00,,,0.00,451.000000,,2013-04-28 20:01:00,
2013-04-28 14:33:00,57.0,31.0,-100.00,SW,217,4.0,11.0,37,0.00,,,0.00,451.000000,,2013-04-28 20:33:00,
2013-04-28 14:42:00,57.0,31.0,-100.00,SW,217,4.0,11.0,37,0.00,,,0.00,451.000000,,2013-04-28 20:42:00,
2013-04-28 14:52:00,57.0,31.0,-100.00,SW,217,4.0,11.0,37,0.00,,,0.00,451.000000,,2013-04-28 20:52:00,
2013-04-28 15:01:00,57.0,34.0,-100.00,South,180,4.0,13.0,42,0.00,,,0.00,495.000000,,2013-04-28 21:01:00,
2013-04-28 15:33:00,57.0,34.0,-100.00,South,180,4.0,13.0,42,0.00,,,0.00,495.000000,,2013-04-28 21:33:00,
2013-04-28 15:42:00,57.0,34.0,-100.00,South,180,4.0,13.0,42,0.00,,,0.00,495.000000,,2013-04-28 21:42:00,
2013-04-28 15:53:00,57.0,34.0,-100.00,South,180,4.0,13.0,42,0.00,,,0.00,495.000000,,2013-04-28 21:53:00,
2013-04-28 16:01:00,54.0,37.0,-100.00,South,186,4.0,12.0,53,0.00,,,0.00,538.000000,,2013-04-28 22:01:00,
2013-04-28 16:23:00,54.0,37.0,-100.00,South,186,4.0,12.0,53,0.00,,,0.00,538.000000,,2013-04-28 22:23:00,
2013-04-28 16:34:00,54.0,37.0,-100.00,South,186,4.0,12.0,53,0.00,,,0.00,538.000000,,2013-04-28 22:34:00,
2013-04-28 16:42:00,54.0,37.0,-100.00,South,186,4.0,12.0,53,0.00,,,0.00,538.000000,,2013-04-28 22:42:00,
2013-04-28 16:52:00,54.0,37.0,-100.00,South,186,4.0,12.0,53,0.00,,,0.00,538.000000,,2013-04-28 22:52:00,
2013-04-28 17:01:00,56.0,37.0,-100.00,South,176,4.0,10.0,48,0.00,,,0.00,264.000000,,2013-04-28 23:01:00,
2013-04-28 17:32:00,56.0,37.0,-100.00,South,176,4.0,10.0,48,0.00,,,0.00,264.000000,,2013-04-28 23:32:00,
2013-04-28 17:42:00,56.0,37.0,-100.00,South,176,4.0,10.0,48,0.00,,,0.00,264.000000,,2013-04-28 23:42:00,
2013-04-28 17:52:00,56.0,37.0,-100.00,South,176,4.0,10.0,48,0.00,,,0.00,264.000000,,2013-04-28 23:52:00,
2013-04-28 18:01:00,56.0,37.0,-100.00,SSW,194,4.0,10.0,48,0.00,,,0.00,303.000000,,2013-04-29 00:01:00,
2013-04-28 18:32:00,56.0,37.0,-100.00,SSW,194,4.0,10.0,48,0.00,,,0.00,303.000000,,2013-04-29 00:32:00,
2013-04-28 18:42:00,56.0,37.0,-100.00,SSW,194,4.0,10.0,48,0.00,,,0.00,303.000000,,2013-04-29 00:42:00,
2013-04-28 18:52:00,56.0,37.0,-100.00,SSW,194,4.0,10.0,48,0.00,,,0.00,303.000000,,2013-04-29 00:52:00,
2013-04-28 19:01:00,53.0,35.0,-100.00,SSE,159,2.0,10.0,50,0.00,,,0.00,179.000000,,2013-04-29 01:01:00,
2013-04-28 19:22:00,53.0,35.0,-100.00,SSE,159,2.0,10.0,50,0.00,,,0.00,179.000000,,2013-04-29 01:22:00,
2013-04-28 19:32:00,53.0,35.0,-100.00,SSE,159,2.0,10.0,50,0.00,,,0.00,179.000000,,2013-04-29 01:32:00,
2013-04-28 19:42:00,53.0,35.0,-100.00,SSE,159,2.0,10.0,50,0.00,,,0.00,179.000000,,2013-04-29 01:42:00,
2013-04-28 19:52:00,53.0,35.0,-100.00,SSE,159,2.0,10.0,50,0.00,,,0.00,179.000000,,2013-04-29 01:52:00,
2013-04-28 20:01:00,50.0,34.0,-100.00,WSW,254,1.0,4.0,53,0.00,,,0.00,55.000000,,2013-04-29 02:01:00,
2013-04-28 20:32:00,50.0,34.0,-100.00,WSW,254,1.0,4.0,53,0.00,,,0.00,55.000000,,2013-04-29 02:32:00,
2013-04-28 20:42:00,50.0,34.0,-100.00,WSW,254,1.0,4.0,53,0.00,,,0.00,55.000000,,2013-04-29 02:42:00,
2013-04-28 20:52:00,50.0,34.0,-100.00,WSW,254,1.0,4.0,53,0.00,,,0.00,55.000000,,2013-04-29 02:52:00,
2013-04-28 21:01:00,48.0,35.0,-100.00,West,266,2.0,7.0,60,0.00,,,0.00,9.000000,,2013-04-29 03:01:00,
2013-04-28 21:22:00,48.0,35.0,-100.00,West,266,2.0,7.0,60,0.00,,,0.00,9.000000,,2013-04-29 03:22:00,
2013-04-28 21:33:00,48.0,35.0,-100.00,West,266,2.0,7.0,60,0.00,,,0.00,9.000000,,2013-04-29 03:33:00,
2013-04-28 21:42:00,48.0,35.0,-100.00,West,266,2.0,7.0,60,0.00,,,0.00,9.000000,,2013-04-29 03:42:00,
2013-04-28 21:53:00,48.0,35.0,-100.00,West,266,2.0,7.0,60,0.00,,,0.00,9.000000,,2013-04-29 03:53:00,
2013-04-28 22:23:00,44.0,35.0,-100.00,SW,219,2.0,4.0,70,0.00,,,0.00,1.000000,,2013-04-29 04:23:00,
2013-04-28 22:33:00,44.0,35.0,-100.00,SW,219,2.0,4.0,70,0.00,,,0.00,1.000000,,2013-04-29 04:33:00,
2013-04-28 23:32:00,42.0,34.0,-100.00,SW,223,2.0,4.0,74,-99.99,,,0.00,1.000000,,2013-04-29 05:32:00,